Terminal Aerodrome Forecast
Issued by NWS Atlanta, GA

Home | Current Version | Previous Version | Text Only | Print | Product List | Glossary On
Versions: 1 2 3 4 5 6 7 8 9 10 11 12 13 14 15 16 17 18 19 20 21 22 23 24 25 26 27
251
FTUS42 KFFC 280527
TAFMCN
TAF
KMCN 280527Z 2806/2906 27005KT P6SM SCT050 SCT100
      TEMPO 2810/2812 5SM BR
     FM281200 25004KT P6SM SCT150
     FM281600 25005KT P6SM SCT040
     FM281800 27008KT P6SM BKN050 PROB30 2821/2824 VRB18G24KT 4SM
      TSRA BKN040CB
     FM290200 25006KT P6SM VCSH BKN080=

USA.gov is the U.S. government's official web portal to all federal, state and local government web resources and services.